createdAt,value
2023-10-05T00:02:02.075Z,59.20
2023-10-05T00:04:41.722Z,59.59
2023-10-05T00:07:09.206Z,59.72
2023-10-05T00:09:35.768Z,59.60
2023-10-05T00:12:05.678Z,59.39
2023-10-05T00:14:32.398Z,59.26
2023-10-05T00:17:01.679Z,60.20
2023-10-05T00:19:30.377Z,61.21
2023-10-05T00:21:58.241Z,60.54
2023-10-05T00:24:32.744Z,61.57
2023-10-05T00:26:59.821Z,62.71
2023-10-05T00:29:30.052Z,61.40
2023-10-05T00:32:01.358Z,63.42
2023-10-05T00:34:29.651Z,66.40
2023-10-05T00:36:59.906Z,64.67
2023-10-05T00:39:30.433Z,63.69
2023-10-05T00:42:05.785Z,63.26
2023-10-05T00:44:34.157Z,63.09
2023-10-05T00:47:08.665Z,62.42
2023-10-05T00:49:55.406Z,62.28
2023-10-05T00:52:29.830Z,62.38
2023-10-05T00:54:59.638Z,61.96
2023-10-05T00:57:26.487Z,61.46
2023-10-05T01:00:19.334Z,61.67
2023-10-05T01:03:05.988Z,61.31
2023-10-05T01:05:51.456Z,61.61
2023-10-05T01:08:24.202Z,61.37
2023-10-05T01:10:55.102Z,61.38
2023-10-05T01:13:35.436Z,61.40
2023-10-05T01:16:17.280Z,61.67
2023-10-05T01:18:45.341Z,61.83
2023-10-05T01:21:12.886Z,62.41
2023-10-05T01:23:39.968Z,61.78
2023-10-05T01:26:13.442Z,61.83
2023-10-05T01:28:43.170Z,61.58
2023-10-05T01:31:18.509Z,61.45
2023-10-05T01:33:46.135Z,62.02
2023-10-05T01:36:12.781Z,61.82
2023-10-05T01:38:40.892Z,61.40
2023-10-05T01:41:09.076Z,62.04
2023-10-05T01:43:36.824Z,61.83
2023-10-05T01:46:05.651Z,61.99
2023-10-05T01:48:32.901Z,61.55
2023-10-05T01:51:09.237Z,61.10
2023-10-05T01:53:35.793Z,61.11
2023-10-05T01:56:02.401Z,61.37
2023-10-05T01:58:28.955Z,61.45
2023-10-05T02:00:56.137Z,61.44
2023-10-05T02:03:26.139Z,62.96
2023-10-05T02:05:57.971Z,62.80
2023-10-05T02:08:24.451Z,63.25
2023-10-05T02:10:51.686Z,63.80
2023-10-05T02:13:18.685Z,63.76
2023-10-05T02:15:49.650Z,63.51
2023-10-05T02:18:25.671Z,64.55
2023-10-05T02:20:57.856Z,65.54
2023-10-05T02:23:27.275Z,65.02
2023-10-05T02:25:58.882Z,63.60
2023-10-05T02:28:28.517Z,63.11
2023-10-05T02:31:00.899Z,62.49
2023-10-05T02:33:29.537Z,62.81
2023-10-05T02:36:12.667Z,62.38
2023-10-05T02:38:39.976Z,62.50
2023-10-05T02:41:08.052Z,62.05
2023-10-05T02:43:40.957Z,61.43
2023-10-05T02:46:12.296Z,61.31
2023-10-05T02:48:42.601Z,61.47
2023-10-05T02:51:11.863Z,61.87
2023-10-05T02:53:57.265Z,61.58
2023-10-05T02:56:33.138Z,61.38
2023-10-05T02:59:08.998Z,65.96
2023-10-05T03:01:38.955Z,66.55
2023-10-05T03:04:15.582Z,65.51
2023-10-05T03:06:43.082Z,64.27
2023-10-05T03:09:10.440Z,63.39
2023-10-05T03:11:38.439Z,63.22
2023-10-05T03:14:12.203Z,63.05
2023-10-05T03:16:45.966Z,62.56
2023-10-05T03:19:21.396Z,62.39
2023-10-05T03:21:52.435Z,61.89
2023-10-05T03:24:20.547Z,62.44
2023-10-05T03:26:53.371Z,65.18
2023-10-05T03:29:22.991Z,64.42
2023-10-05T03:32:05.609Z,64.11
2023-10-05T03:34:33.598Z,63.89
2023-10-05T03:37:08.725Z,64.15
2023-10-05T03:39:55.080Z,68.12
2023-10-05T03:42:25.699Z,67.21
2023-10-05T03:45:04.044Z,65.99
2023-10-05T03:47:40.567Z,66.34
2023-10-05T03:50:18.200Z,65.82
2023-10-05T03:52:46.172Z,65.10
2023-10-05T03:55:13.032Z,65.11
2023-10-05T03:57:40.280Z,65.09
2023-10-05T04:00:22.312Z,63.91
2023-10-05T04:02:48.934Z,63.74
2023-10-05T04:05:19.277Z,62.87
2023-10-05T04:07:46.295Z,63.06
2023-10-05T04:10:21.942Z,62.40
2023-10-05T04:12:50.877Z,62.25
2023-10-05T04:15:19.406Z,62.45
2023-10-05T04:17:46.618Z,62.35
2023-10-05T04:20:29.904Z,63.22
2023-10-05T04:22:57.336Z,62.87
2023-10-05T04:25:24.696Z,62.85
2023-10-05T04:27:51.874Z,62.23
2023-10-05T04:30:19.856Z,61.73
2023-10-05T04:32:47.068Z,61.58
2023-10-05T04:35:29.967Z,61.47
2023-10-05T04:37:58.302Z,60.82
2023-10-05T04:40:26.607Z,61.43
2023-10-05T04:42:53.732Z,60.75
2023-10-05T04:45:24.680Z,61.03
2023-10-05T04:47:51.528Z,60.88
2023-10-05T04:50:18.527Z,60.48
2023-10-05T04:52:52.351Z,60.11
2023-10-05T04:55:23.997Z,60.84
2023-10-05T04:57:51.558Z,60.44
2023-10-05T05:00:36.594Z,60.38
2023-10-05T05:03:21.595Z,60.87
2023-10-05T05:06:23.586Z,60.74
2023-10-05T05:08:51.421Z,60.69
2023-10-05T05:11:22.697Z,60.26
2023-10-05T05:13:52.745Z,60.47
2023-10-05T05:16:20.352Z,60.34
2023-10-05T05:18:47.100Z,60.34
2023-10-05T05:21:13.916Z,60.61
2023-10-05T05:23:44.415Z,60.73
2023-10-05T05:26:12.450Z,61.11
2023-10-05T05:28:39.309Z,60.56
2023-10-05T05:31:14.885Z,60.44
2023-10-05T05:33:42.659Z,60.94
2023-10-05T05:36:11.958Z,60.82
2023-10-05T05:38:42.201Z,61.23
2023-10-05T05:41:12.943Z,62.37
2023-10-05T05:43:43.176Z,62.30
2023-10-05T05:46:16.031Z,61.76
2023-10-05T05:48:49.747Z,61.83
2023-10-05T05:51:16.924Z,61.98
2023-10-05T05:53:44.792Z,62.02
2023-10-05T05:56:21.093Z,61.69
2023-10-05T05:58:48.409Z,61.48
2023-10-05T06:01:16.022Z,62.19
2023-10-05T06:03:50.087Z,64.61
2023-10-05T06:06:20.531Z,65.59
2023-10-05T06:08:48.126Z,64.90
2023-10-05T06:11:15.703Z,64.86
2023-10-05T06:13:46.617Z,66.58
2023-10-05T06:16:14.673Z,66.74
2023-10-05T06:18:41.238Z,65.60
2023-10-05T06:21:07.732Z,64.55
2023-10-05T06:23:35.310Z,63.93
2023-10-05T06:26:02.561Z,63.33
2023-10-05T06:28:29.195Z,62.71
2023-10-05T06:30:58.101Z,63.21
2023-10-05T06:33:25.868Z,65.03
2023-10-05T06:35:52.466Z,63.90
2023-10-05T06:38:19.266Z,63.01
2023-10-05T06:40:45.841Z,62.65
2023-10-05T06:43:12.340Z,62.14
2023-10-05T06:45:44.474Z,61.83
2023-10-05T06:48:11.018Z,60.77
2023-10-05T06:50:38.389Z,60.65
2023-10-05T06:53:05.049Z,60.07
2023-10-05T06:55:31.638Z,59.89
2023-10-05T06:57:58.905Z,59.85
2023-10-05T07:00:27.349Z,59.35
2023-10-05T07:03:03.574Z,58.34
2023-10-05T07:05:30.049Z,57.78
2023-10-05T07:07:56.680Z,57.05
2023-10-05T07:10:23.299Z,56.47
2023-10-05T07:12:49.992Z,56.19
2023-10-05T07:15:19.661Z,55.17
2023-10-05T07:17:47.323Z,54.85
2023-10-05T07:20:13.901Z,54.94
2023-10-05T07:22:45.249Z,54.77
2023-10-05T07:25:12.754Z,54.02
2023-10-05T07:27:40.296Z,54.05
2023-10-05T07:30:07.977Z,53.12
2023-10-05T07:32:37.747Z,52.87
2023-10-05T07:35:08.129Z,51.98
2023-10-05T07:37:37.040Z,51.60
2023-10-05T07:40:05.620Z,51.10
2023-10-05T07:42:32.253Z,50.35
2023-10-05T07:44:59.257Z,50.33
2023-10-05T07:47:25.995Z,50.13
2023-10-05T07:49:54.144Z,48.97
2023-10-05T07:52:21.286Z,48.83
2023-10-05T07:54:48.501Z,48.91
2023-10-05T07:57:15.304Z,48.69
2023-10-05T07:59:43.424Z,48.93
2023-10-05T08:02:13.323Z,49.04
2023-10-05T08:04:40.042Z,49.07
2023-10-05T08:07:06.976Z,48.38
2023-10-05T08:09:33.597Z,46.11
2023-10-05T08:12:00.295Z,46.16
2023-10-05T08:14:31.563Z,45.71
2023-10-05T08:16:59.925Z,45.49
2023-10-05T08:19:26.776Z,44.81
2023-10-05T08:21:54.795Z,44.80
2023-10-05T08:24:24.975Z,44.49
2023-10-05T08:26:58.330Z,44.30
2023-10-05T08:29:26.043Z,43.33
2023-10-05T08:31:53.423Z,44.29
2023-10-05T08:34:22.926Z,44.59
2023-10-05T08:36:56.141Z,44.84
2023-10-05T08:39:27.011Z,45.08
2023-10-05T08:41:58.860Z,44.33
2023-10-05T08:44:28.903Z,43.68
2023-10-05T08:46:59.481Z,42.47
2023-10-05T08:49:30.542Z,43.09
2023-10-05T08:52:04.441Z,43.89
2023-10-05T08:54:34.731Z,43.20
2023-10-05T08:57:10.637Z,43.04
2023-10-05T08:59:46.078Z,43.83
2023-10-05T09:02:23.388Z,44.26
2023-10-05T09:05:01.174Z,43.84
2023-10-05T09:07:37.352Z,43.67
2023-10-05T09:10:07.193Z,43.98
2023-10-05T09:12:35.855Z,43.95
2023-10-05T09:15:19.616Z,44.16
2023-10-05T09:18:06.896Z,44.98
2023-10-05T09:20:37.448Z,43.76
2023-10-05T09:23:06.867Z,43.08
2023-10-05T09:25:41.176Z,42.87
2023-10-05T09:28:14.352Z,42.66
2023-10-05T09:30:48.201Z,42.43
2023-10-05T09:33:19.761Z,40.35
2023-10-05T09:35:48.192Z,39.80
2023-10-05T09:38:18.319Z,38.96
2023-10-05T09:40:48.233Z,39.98
2023-10-05T09:43:22.583Z,38.32
2023-10-05T09:45:55.252Z,39.28
2023-10-05T09:48:22.806Z,39.27
2023-10-05T09:50:50.161Z,38.76
2023-10-05T09:53:20.245Z,39.41
2023-10-05T09:55:55.010Z,38.87
2023-10-05T09:58:22.464Z,39.31
2023-10-05T10:00:50.165Z,39.01
2023-10-05T10:03:16.827Z,39.74
2023-10-05T10:05:53.493Z,39.60
2023-10-05T10:08:29.989Z,39.46
2023-10-05T10:11:08.055Z,39.69
2023-10-05T10:13:39.733Z,39.64
2023-10-05T10:16:16.961Z,39.86
2023-10-05T10:18:46.521Z,40.54
2023-10-05T10:21:25.980Z,38.96
2023-10-05T10:24:18.971Z,38.09
2023-10-05T10:26:53.513Z,38.31
2023-10-05T10:29:24.061Z,38.48
2023-10-05T10:32:20.294Z,38.35
2023-10-05T10:34:56.277Z,37.55
2023-10-05T10:37:52.263Z,38.47
2023-10-05T10:40:19.026Z,38.60
2023-10-05T10:43:08.807Z,38.17
2023-10-05T10:45:47.554Z,38.04
2023-10-05T10:48:20.574Z,37.66
2023-10-05T10:50:48.790Z,38.93
2023-10-05T10:53:18.752Z,38.23
2023-10-05T10:55:52.450Z,38.12
2023-10-05T10:58:25.300Z,38.23
2023-10-05T11:00:56.979Z,38.83
2023-10-05T11:03:31.854Z,37.77
2023-10-05T11:05:59.893Z,37.47
2023-10-05T11:08:31.897Z,37.08
2023-10-05T11:11:10.945Z,37.91
2023-10-05T11:13:44.570Z,37.89
2023-10-05T11:16:12.464Z,37.78
2023-10-05T11:19:26.671Z,37.68
2023-10-05T11:22:05.881Z,37.71
2023-10-05T11:24:33.192Z,37.65
2023-10-05T11:27:02.794Z,38.36
2023-10-05T11:29:30.331Z,38.67
2023-10-05T11:32:35.625Z,38.17
2023-10-05T11:35:14.399Z,38.28
2023-10-05T11:37:59.430Z,38.38
2023-10-05T11:40:32.347Z,38.42
2023-10-05T11:43:00.400Z,37.68
2023-10-05T11:45:26.956Z,38.28
2023-10-05T11:47:57.562Z,37.45
2023-10-05T11:50:26.404Z,38.06
2023-10-05T11:52:53.630Z,37.87
2023-10-05T11:55:21.184Z,38.42
2023-10-05T11:57:48.464Z,38.14
2023-10-05T12:00:17.257Z,38.16
2023-10-05T12:02:47.486Z,37.31
2023-10-05T12:05:15.409Z,37.53
2023-10-05T12:07:43.450Z,38.29
2023-10-05T12:10:11.308Z,37.65
2023-10-05T12:12:42.938Z,38.21
2023-10-05T12:15:18.432Z,37.45
2023-10-05T12:17:47.173Z,37.71
2023-10-05T12:20:16.903Z,37.03
2023-10-05T12:22:44.879Z,38.09
2023-10-05T12:25:16.221Z,37.33
2023-10-05T12:27:43.485Z,37.05
2023-10-05T12:30:16.179Z,37.44
2023-10-05T12:32:43.218Z,36.46
2023-10-05T12:35:14.788Z,37.14
2023-10-05T12:37:45.836Z,37.35
2023-10-05T12:40:27.530Z,37.15
2023-10-05T12:43:05.697Z,37.38
2023-10-05T12:45:40.932Z,36.97
2023-10-05T12:48:07.760Z,36.93
2023-10-05T12:50:34.476Z,37.26
2023-10-05T12:53:03.013Z,36.51
2023-10-05T12:55:33.570Z,36.36
2023-10-05T12:58:00.511Z,36.33
2023-10-05T13:00:33.035Z,36.82
2023-10-05T13:03:03.268Z,36.74
2023-10-05T13:05:35.663Z,36.22
2023-10-05T13:08:02.885Z,35.71
2023-10-05T13:10:33.507Z,36.25
2023-10-05T13:13:02.106Z,36.70
2023-10-05T13:15:34.136Z,37.07
2023-10-05T13:18:16.940Z,36.72
2023-10-05T13:20:44.644Z,37.12
2023-10-05T13:23:12.904Z,37.38
2023-10-05T13:25:46.387Z,37.15
2023-10-05T13:28:12.885Z,37.56
2023-10-05T13:30:43.339Z,37.52
2023-10-05T13:33:24.240Z,36.43
2023-10-05T13:35:52.849Z,36.86
2023-10-05T13:38:21.102Z,37.04
2023-10-05T13:41:02.944Z,37.60
2023-10-05T13:43:31.200Z,38.12
2023-10-05T13:46:25.786Z,38.27
2023-10-05T13:48:55.257Z,38.81
2023-10-05T13:51:24.047Z,38.96
2023-10-05T13:53:57.870Z,39.65
2023-10-05T13:56:29.363Z,39.22
2023-10-05T13:59:03.756Z,39.80
2023-10-05T14:01:44.651Z,39.95
2023-10-05T14:04:16.685Z,39.26
2023-10-05T14:06:44.835Z,39.70
2023-10-05T14:09:12.220Z,39.93
2023-10-05T14:11:42.024Z,39.75
2023-10-05T14:14:10.707Z,40.26
2023-10-05T14:16:51.577Z,40.30
2023-10-05T14:19:19.543Z,40.72
2023-10-05T14:21:46.634Z,41.01
2023-10-05T14:24:14.994Z,40.88
2023-10-05T14:26:46.063Z,40.64
2023-10-05T14:29:13.889Z,41.15
2023-10-05T14:31:40.475Z,40.20
2023-10-05T14:34:10.404Z,39.98
2023-10-05T14:36:37.201Z,40.27
2023-10-05T14:39:19.494Z,40.53
2023-10-05T14:41:46.337Z,41.04
2023-10-05T14:44:12.887Z,41.24
2023-10-05T14:46:40.423Z,41.41
2023-10-05T14:49:08.736Z,41.16
2023-10-05T14:51:35.934Z,41.59
2023-10-05T14:54:02.571Z,40.96
2023-10-05T14:56:29.064Z,41.55
2023-10-05T14:58:55.747Z,41.86
2023-10-05T15:01:22.374Z,41.81
2023-10-05T15:03:48.947Z,41.68
2023-10-05T15:06:16.226Z,41.83
2023-10-05T15:08:42.941Z,41.69
2023-10-05T15:11:10.468Z,41.26
2023-10-05T15:13:38.609Z,41.28
2023-10-05T15:16:06.920Z,41.90
2023-10-05T15:18:36.167Z,41.61
2023-10-05T15:21:03.682Z,42.11
2023-10-05T15:23:30.263Z,42.05
2023-10-05T15:25:58.334Z,42.07
2023-10-05T15:28:25.783Z,42.43
2023-10-05T15:30:52.461Z,42.74
2023-10-05T15:33:19.100Z,43.29
2023-10-05T15:35:45.720Z,42.11
2023-10-05T15:38:12.298Z,42.07
2023-10-05T15:40:38.957Z,42.70
2023-10-05T15:43:05.770Z,41.81
2023-10-05T15:45:32.672Z,41.85
2023-10-05T15:48:00.311Z,41.04
2023-10-05T15:50:28.270Z,41.11
2023-10-05T15:53:00.854Z,41.37
2023-10-05T15:55:30.530Z,41.07
2023-10-05T15:57:58.512Z,42.14
2023-10-05T16:00:27.056Z,43.66
2023-10-05T16:02:58.768Z,42.84
2023-10-05T16:05:27.356Z,43.69
2023-10-05T16:08:01.516Z,43.88
2023-10-05T16:10:29.469Z,44.23
2023-10-05T16:12:59.242Z,44.07
2023-10-05T16:15:25.971Z,43.81
2023-10-05T16:17:52.948Z,43.83
2023-10-05T16:20:27.158Z,44.61
2023-10-05T16:22:57.361Z,45.28
2023-10-05T16:25:28.017Z,45.24
2023-10-05T16:27:55.755Z,45.09
2023-10-05T16:30:23.513Z,45.03
2023-10-05T16:32:59.165Z,45.24
2023-10-05T16:35:26.177Z,45.29
2023-10-05T16:37:52.973Z,45.36
2023-10-05T16:40:25.847Z,44.75
2023-10-05T16:42:53.869Z,45.01
2023-10-05T16:45:21.666Z,45.01
2023-10-05T16:47:49.937Z,45.42
2023-10-05T16:50:19.604Z,46.04
2023-10-05T16:52:47.470Z,45.53
2023-10-05T16:55:15.601Z,45.25
2023-10-05T16:57:45.268Z,46.45
2023-10-05T17:00:28.418Z,46.33
2023-10-05T17:02:56.674Z,45.51
2023-10-05T17:05:27.142Z,45.18
2023-10-05T17:07:59.845Z,45.24
2023-10-05T17:10:27.328Z,45.50
2023-10-05T17:12:54.324Z,46.08
2023-10-05T17:15:25.691Z,46.57
2023-10-05T17:17:56.042Z,45.69
2023-10-05T17:20:23.733Z,45.65
2023-10-05T17:22:51.510Z,45.86
2023-10-05T17:25:18.611Z,46.34
2023-10-05T17:27:45.458Z,46.22
2023-10-05T17:30:14.881Z,46.40
2023-10-05T17:32:44.894Z,46.70
2023-10-05T17:35:11.708Z,47.18
2023-10-05T17:37:38.376Z,46.47
2023-10-05T17:40:06.184Z,48.22
2023-10-05T17:42:34.671Z,47.66
2023-10-05T17:45:01.863Z,47.57
2023-10-05T17:47:28.387Z,47.76
2023-10-05T17:49:57.620Z,49.13
2023-10-05T17:52:24.480Z,48.95
2023-10-05T17:54:50.988Z,48.64
2023-10-05T17:57:18.977Z,49.01
2023-10-05T17:59:48.570Z,49.27
2023-10-05T18:02:18.398Z,50.08
2023-10-05T18:04:46.246Z,50.36
2023-10-05T18:07:12.979Z,51.02
2023-10-05T18:09:39.779Z,51.29
2023-10-05T18:12:09.319Z,50.88
2023-10-05T18:14:36.169Z,50.28
2023-10-05T18:17:04.846Z,50.03
2023-10-05T18:19:31.508Z,49.31
2023-10-05T18:21:58.315Z,49.14
2023-10-05T18:24:25.106Z,49.35
2023-10-05T18:26:52.403Z,49.51
2023-10-05T18:29:19.369Z,50.38
2023-10-05T18:31:48.481Z,50.14
2023-10-05T18:34:16.208Z,49.70
2023-10-05T18:36:42.756Z,50.30
2023-10-05T18:39:15.233Z,49.78
2023-10-05T18:41:43.064Z,50.16
2023-10-05T18:44:09.696Z,51.07
2023-10-05T18:46:48.565Z,50.68
2023-10-05T18:49:15.127Z,50.52
2023-10-05T18:51:42.936Z,50.05
2023-10-05T18:54:09.952Z,51.16
2023-10-05T18:56:37.902Z,50.93
2023-10-05T18:59:05.529Z,51.17
2023-10-05T19:01:32.164Z,51.45
2023-10-05T19:03:58.966Z,52.18
2023-10-05T19:06:25.530Z,51.55
2023-10-05T19:08:52.108Z,52.22
2023-10-05T19:11:20.931Z,52.87
2023-10-05T19:13:48.872Z,55.69
2023-10-05T19:16:15.816Z,55.12
2023-10-05T19:18:42.347Z,54.31
2023-10-05T19:21:12.722Z,53.77
2023-10-05T19:23:40.112Z,53.75
2023-10-05T19:26:06.751Z,54.63
2023-10-05T19:28:33.450Z,54.06
2023-10-05T19:31:03.212Z,53.79
2023-10-05T19:33:30.470Z,53.36
2023-10-05T19:35:56.975Z,53.61
2023-10-05T19:38:23.601Z,54.06
2023-10-05T19:40:50.613Z,54.38
2023-10-05T19:43:17.321Z,54.80
2023-10-05T19:45:43.940Z,54.99
2023-10-05T19:48:11.831Z,56.24
2023-10-05T19:50:40.335Z,55.93
2023-10-05T19:53:07.229Z,56.07
2023-10-05T19:55:33.931Z,56.20
2023-10-05T19:58:01.570Z,56.28
2023-10-05T20:00:28.308Z,56.06
2023-10-05T20:02:55.504Z,55.79
2023-10-05T20:05:24.781Z,55.68
2023-10-05T20:07:57.746Z,55.47
2023-10-05T20:10:29.583Z,55.55
2023-10-05T20:12:56.115Z,55.34
2023-10-05T20:15:22.696Z,55.31
2023-10-05T20:17:49.475Z,55.17
2023-10-05T20:20:17.042Z,55.09
2023-10-05T20:22:43.660Z,55.93
2023-10-05T20:25:12.208Z,56.61
2023-10-05T20:27:39.421Z,57.06
2023-10-05T20:30:12.936Z,57.00
2023-10-05T20:32:39.807Z,56.96
2023-10-05T20:35:08.353Z,57.25
2023-10-05T20:37:34.973Z,57.32
2023-10-05T20:40:04.691Z,56.78
2023-10-05T20:42:32.075Z,56.96
2023-10-05T20:44:58.672Z,57.07
2023-10-05T20:47:25.425Z,56.86
2023-10-05T20:49:52.366Z,57.18
2023-10-05T20:52:18.920Z,56.90
2023-10-05T20:54:45.383Z,56.88
2023-10-05T20:57:12.175Z,57.75
2023-10-05T20:59:38.709Z,57.45
2023-10-05T21:02:05.325Z,58.09
2023-10-05T21:04:35.179Z,57.93
2023-10-05T21:07:01.888Z,58.45
2023-10-05T21:09:28.963Z,57.78
2023-10-05T21:11:56.165Z,57.75
2023-10-05T21:14:23.863Z,58.14
2023-10-05T21:16:50.992Z,58.40
2023-10-05T21:19:20.496Z,58.52
2023-10-05T21:21:48.522Z,59.82
2023-10-05T21:24:15.007Z,60.62
2023-10-05T21:26:41.682Z,60.62
2023-10-05T21:29:08.796Z,61.28
2023-10-05T21:31:35.872Z,61.18
2023-10-05T21:34:02.879Z,60.87
2023-10-05T21:36:29.461Z,60.99
2023-10-05T21:38:56.053Z,61.63
2023-10-05T21:41:22.895Z,62.22
2023-10-05T21:43:50.095Z,62.26
2023-10-05T21:46:17.540Z,62.50
2023-10-05T21:48:44.098Z,61.86
2023-10-05T21:51:10.786Z,61.03
2023-10-05T21:53:38.472Z,60.35
2023-10-05T21:56:05.260Z,60.15
2023-10-05T21:58:32.691Z,59.52
2023-10-05T22:01:01.454Z,59.71
2023-10-05T22:03:28.370Z,58.77
2023-10-05T22:05:54.995Z,58.77
2023-10-05T22:08:21.668Z,58.81
2023-10-05T22:10:48.430Z,58.75
2023-10-05T22:13:15.761Z,58.39
2023-10-05T22:15:43.249Z,58.80
2023-10-05T22:18:11.677Z,58.22
2023-10-05T22:20:39.306Z,58.68
2023-10-05T22:23:09.844Z,58.40
2023-10-05T22:25:41.174Z,58.75
2023-10-05T22:28:08.850Z,58.18
2023-10-05T22:30:36.310Z,57.64
2023-10-05T22:33:03.492Z,57.76
2023-10-05T22:35:30.392Z,57.66
2023-10-05T22:37:56.947Z,57.74
2023-10-05T22:40:23.544Z,57.54
2023-10-05T22:42:50.056Z,57.50
2023-10-05T22:45:16.615Z,57.98
2023-10-05T22:47:43.144Z,57.96
2023-10-05T22:50:10.014Z,57.99
2023-10-05T22:52:37.239Z,59.67
2023-10-05T22:55:04.758Z,59.81
2023-10-05T22:57:31.338Z,60.36
2023-10-05T22:59:57.916Z,62.44
2023-10-05T23:02:24.425Z,63.18
2023-10-05T23:04:51.123Z,62.12
2023-10-05T23:07:18.565Z,62.03
2023-10-05T23:09:47.338Z,61.45
2023-10-05T23:12:14.517Z,60.80
2023-10-05T23:14:48.722Z,60.82
2023-10-05T23:17:16.854Z,61.08
2023-10-05T23:19:46.833Z,62.27
2023-10-05T23:22:13.615Z,62.12
2023-10-05T23:24:40.275Z,61.74
2023-10-05T23:27:07.123Z,61.09
2023-10-05T23:29:35.038Z,61.23
2023-10-05T23:32:01.893Z,61.65
2023-10-05T23:34:30.645Z,61.14
2023-10-05T23:37:03.227Z,60.62
2023-10-05T23:39:30.174Z,60.21
2023-10-05T23:41:57.817Z,60.14
2023-10-05T23:44:26.305Z,60.08
2023-10-05T23:47:19.032Z,60.35
2023-10-05T23:49:45.405Z,61.69
2023-10-05T23:52:11.937Z,61.10
2023-10-05T23:54:40.764Z,60.16
2023-10-05T23:57:12.948Z,59.83
2023-10-05T23:59:39.469Z,59.59
